sensor_id;sensor_type;location;lat;lon;timestamp;noise_LAeq;noise_LA_min;noise_LA_max;noise_LA01;noise_LA95
49215;Laerm;45943;53.148;8.204;2024-02-21T00:01:04;43.89;40.30;47.82;;
49215;Laerm;45943;53.148;8.204;2024-02-21T00:03:31;44.76;40.93;54.74;;
49215;Laerm;45943;53.148;8.204;2024-02-21T00:05:57;43.23;39.27;51.87;;
49215;Laerm;45943;53.148;8.204;2024-02-21T00:08:23;43.98;40.83;50.13;;
49215;Laerm;45943;53.148;8.204;2024-02-21T00:10:49;61.83;40.63;77.12;;
49215;Laerm;45943;53.148;8.204;2024-02-21T00:13:15;43.88;40.52;61.67;;
49215;Laerm;45943;53.148;8.204;2024-02-21T00:15:41;44.52;41.03;57.92;;
49215;Laerm;45943;53.148;8.204;2024-02-21T00:18:10;42.88;39.81;54.64;;
49215;Laerm;45943;53.148;8.204;2024-02-21T00:20:37;43.02;39.55;46.20;;
49215;Laerm;45943;53.148;8.204;2024-02-21T00:23:03;43.00;39.68;48.39;;
49215;Laerm;45943;53.148;8.204;2024-02-21T00:25:29;42.53;38.65;47.15;;
49215;Laerm;45943;53.148;8.204;2024-02-21T00:27:55;43.06;38.48;51.86;;
49215;Laerm;45943;53.148;8.204;2024-02-21T00:30:21;62.30;41.31;73.55;;
49215;Laerm;45943;53.148;8.204;2024-02-21T00:32:47;42.99;39.12;50.19;;
49215;Laerm;45943;53.148;8.204;2024-02-21T00:35:14;42.63;39.27;46.67;;
49215;Laerm;45943;53.148;8.204;2024-02-21T00:37:40;43.13;39.12;51.86;;
49215;Laerm;45943;53.148;8.204;2024-02-21T00:40:06;42.42;38.65;58.35;;
49215;Laerm;45943;53.148;8.204;2024-02-21T00:42:32;42.70;39.12;56.01;;
49215;Laerm;45943;53.148;8.204;2024-02-21T00:44:58;43.08;39.41;46.92;;
49215;Laerm;45943;53.148;8.204;2024-02-21T00:47:25;42.92;39.41;48.39;;
49215;Laerm;45943;53.148;8.204;2024-02-21T00:49:51;42.09;38.30;45.80;;
49215;Laerm;45943;53.148;8.204;2024-02-21T00:52:17;43.02;39.55;48.28;;
49215;Laerm;45943;53.148;8.204;2024-02-21T00:54:43;43.03;39.27;52.71;;
49215;Laerm;45943;53.148;8.204;2024-02-21T00:57:09;42.13;38.81;44.23;;
49215;Laerm;45943;53.148;8.204;2024-02-21T00:59:37;42.44;38.65;45.61;;
49215;Laerm;45943;53.148;8.204;2024-02-21T01:02:03;42.76;39.68;52.66;;
49215;Laerm;45943;53.148;8.204;2024-02-21T01:04:29;44.83;38.97;58.95;;
49215;Laerm;45943;53.148;8.204;2024-02-21T01:06:55;43.14;39.20;52.24;;
49215;Laerm;45943;53.148;8.204;2024-02-21T01:09:21;42.24;38.47;47.68;;
49215;Laerm;45943;53.148;8.204;2024-02-21T01:11:47;42.00;38.12;45.43;;
49215;Laerm;45943;53.148;8.204;2024-02-21T01:14:13;43.21;38.48;51.17;;
49215;Laerm;45943;53.148;8.204;2024-02-21T01:16:39;43.72;39.27;53.80;;
49215;Laerm;45943;53.148;8.204;2024-02-21T01:19:05;43.26;39.81;48.41;;
49215;Laerm;45943;53.148;8.204;2024-02-21T01:21:31;44.92;39.12;59.67;;
49215;Laerm;45943;53.148;8.204;2024-02-21T01:23:57;41.19;37.72;44.41;;
49215;Laerm;45943;53.148;8.204;2024-02-21T01:26:23;42.15;38.12;45.43;;
49215;Laerm;45943;53.148;8.204;2024-02-21T01:28:49;41.63;37.51;46.49;;
49215;Laerm;45943;53.148;8.204;2024-02-21T01:31:15;42.21;38.65;45.22;;
49215;Laerm;45943;53.148;8.204;2024-02-21T01:33:41;42.35;38.12;46.05;;
49215;Laerm;45943;53.148;8.204;2024-02-21T01:36:08;42.78;39.27;51.08;;
49215;Laerm;45943;53.148;8.204;2024-02-21T01:38:34;45.96;41.90;57.06;;
49215;Laerm;45943;53.148;8.204;2024-02-21T01:41:00;45.77;39.27;52.02;;
49215;Laerm;45943;53.148;8.204;2024-02-21T01:43:26;43.30;40.18;45.77;;
49215;Laerm;45943;53.148;8.204;2024-02-21T01:45:55;42.43;38.65;50.92;;
49215;Laerm;45943;53.148;8.204;2024-02-21T01:48:22;42.77;38.81;48.32;;
49215;Laerm;45943;53.148;8.204;2024-02-21T01:50:52;53.20;40.83;68.90;;
49215;Laerm;45943;53.148;8.204;2024-02-21T01:53:24;42.77;39.27;47.00;;
49215;Laerm;45943;53.148;8.204;2024-02-21T01:55:52;42.63;38.65;48.30;;
49215;Laerm;45943;53.148;8.204;2024-02-21T01:58:19;42.39;38.81;48.56;;
49215;Laerm;45943;53.148;8.204;2024-02-21T02:00:47;42.99;38.97;49.92;;
49215;Laerm;45943;53.148;8.204;2024-02-21T02:03:13;43.68;39.68;51.42;;
49215;Laerm;45943;53.148;8.204;2024-02-21T02:05:44;52.97;40.83;67.79;;
49215;Laerm;45943;53.148;8.204;2024-02-21T02:08:10;43.57;39.27;48.53;;
49215;Laerm;45943;53.148;8.204;2024-02-21T02:10:37;44.55;39.55;65.78;;
49215;Laerm;45943;53.148;8.204;2024-02-21T02:13:03;43.65;39.81;51.21;;
49215;Laerm;45943;53.148;8.204;2024-02-21T02:15:47;43.33;39.12;48.53;;
49215;Laerm;45943;53.148;8.204;2024-02-21T02:18:14;43.55;40.18;51.64;;
49215;Laerm;45943;53.148;8.204;2024-02-21T02:20:40;53.29;39.55;71.75;;
49215;Laerm;45943;53.148;8.204;2024-02-21T02:25:40;43.47;39.81;49.59;;
49215;Laerm;45943;53.148;8.204;2024-02-21T02:28:07;43.35;40.30;47.44;;
49215;Laerm;45943;53.148;8.204;2024-02-21T02:30:36;44.87;42.15;58.77;;
49215;Laerm;45943;53.148;8.204;2024-02-21T02:33:06;44.05;40.83;56.94;;
49215;Laerm;45943;53.148;8.204;2024-02-21T02:35:32;43.21;39.94;48.83;;
49215;Laerm;45943;53.148;8.204;2024-02-21T02:38:01;42.91;39.81;45.57;;
49215;Laerm;45943;53.148;8.204;2024-02-21T02:40:27;43.39;40.41;48.28;;
49215;Laerm;45943;53.148;8.204;2024-02-21T02:42:53;45.01;40.30;60.68;;
49215;Laerm;45943;53.148;8.204;2024-02-21T02:45:21;43.21;39.81;48.43;;
49215;Laerm;45943;53.148;8.204;2024-02-21T02:47:49;43.08;39.55;47.94;;
49215;Laerm;45943;53.148;8.204;2024-02-21T02:50:15;44.69;40.52;56.79;;
49215;Laerm;45943;53.148;8.204;2024-02-21T02:52:41;43.53;40.30;56.55;;
49215;Laerm;45943;53.148;8.204;2024-02-21T02:55:07;62.40;41.58;74.59;;
49215;Laerm;45943;53.148;8.204;2024-02-21T02:57:33;64.57;40.30;77.50;;
49215;Laerm;45943;53.148;8.204;2024-02-21T02:59:59;42.73;39.07;46.57;;
49215;Laerm;45943;53.148;8.204;2024-02-21T03:02:26;49.17;39.81;65.68;;
49215;Laerm;45943;53.148;8.204;2024-02-21T03:04:51;49.36;39.94;67.88;;
49215;Laerm;45943;53.148;8.204;2024-02-21T03:07:17;43.42;40.18;59.45;;
49215;Laerm;45943;53.148;8.204;2024-02-21T03:09:43;52.95;40.41;68.09;;
49215;Laerm;45943;53.148;8.204;2024-02-21T03:12:10;44.19;40.18;62.63;;
49215;Laerm;45943;53.148;8.204;2024-02-21T03:14:36;43.70;40.52;58.46;;
49215;Laerm;45943;53.148;8.204;2024-02-21T03:17:02;52.14;41.22;69.65;;
49215;Laerm;45943;53.148;8.204;2024-02-21T03:19:28;43.91;41.13;61.42;;
49215;Laerm;45943;53.148;8.204;2024-02-21T03:21:55;43.45;39.94;53.97;;
49215;Laerm;45943;53.148;8.204;2024-02-21T03:24:21;43.27;39.68;55.92;;
49215;Laerm;45943;53.148;8.204;2024-02-21T03:26:47;44.66;41.31;60.42;;
49215;Laerm;45943;53.148;8.204;2024-02-21T03:29:15;55.75;41.03;70.65;;
49215;Laerm;45943;53.148;8.204;2024-02-21T03:31:42;45.91;39.55;64.48;;
49215;Laerm;45943;53.148;8.204;2024-02-21T03:34:12;48.67;40.83;67.28;;
49215;Laerm;45943;53.148;8.204;2024-02-21T03:36:38;54.50;40.63;69.73;;
49215;Laerm;45943;53.148;8.204;2024-02-21T03:39:04;43.71;40.73;55.89;;
49215;Laerm;45943;53.148;8.204;2024-02-21T03:41:30;43.78;41.22;61.17;;
49215;Laerm;45943;53.148;8.204;2024-02-21T03:43:56;44.19;40.73;61.40;;
49215;Laerm;45943;53.148;8.204;2024-02-21T03:46:24;44.58;41.31;61.59;;
49215;Laerm;45943;53.148;8.204;2024-02-21T03:48:50;45.21;42.35;58.17;;
49215;Laerm;45943;53.148;8.204;2024-02-21T03:51:16;56.53;43.36;74.08;;
49215;Laerm;45943;53.148;8.204;2024-02-21T03:53:43;49.73;40.83;66.68;;
49215;Laerm;45943;53.148;8.204;2024-02-21T03:56:09;44.73;41.40;58.98;;
49215;Laerm;45943;53.148;8.204;2024-02-21T03:58:35;49.92;41.22;70.69;;
49215;Laerm;45943;53.148;8.204;2024-02-21T04:01:01;44.51;41.40;63.77;;
49215;Laerm;45943;53.148;8.204;2024-02-21T04:03:28;45.44;42.35;64.61;;
49215;Laerm;45943;53.148;8.204;2024-02-21T04:05:54;51.53;41.79;67.07;;
49215;Laerm;45943;53.148;8.204;2024-02-21T04:08:20;44.82;41.49;54.29;;
49215;Laerm;45943;53.148;8.204;2024-02-21T04:10:47;49.44;42.21;65.13;;
49215;Laerm;45943;53.148;8.204;2024-02-21T04:13:13;44.40;41.90;58.61;;
49215;Laerm;45943;53.148;8.204;2024-02-21T04:15:39;44.73;42.06;57.12;;
49215;Laerm;45943;53.148;8.204;2024-02-21T04:18:05;51.12;42.35;68.65;;
49215;Laerm;45943;53.148;8.204;2024-02-21T04:20:31;49.85;42.42;64.76;;
49215;Laerm;45943;53.148;8.204;2024-02-21T04:22:58;53.16;42.76;69.11;;
49215;Laerm;45943;53.148;8.204;2024-02-21T04:25:24;55.49;42.13;70.46;;
49215;Laerm;45943;53.148;8.204;2024-02-21T04:27:50;49.24;42.35;65.56;;
49215;Laerm;45943;53.148;8.204;2024-02-21T04:30:16;55.26;42.56;69.78;;
49215;Laerm;45943;53.148;8.204;2024-02-21T04:32:42;49.25;42.35;65.32;;
49215;Laerm;45943;53.148;8.204;2024-02-21T04:35:08;47.94;42.89;63.07;;
49215;Laerm;45943;53.148;8.204;2024-02-21T04:37:35;49.20;43.13;66.13;;
49215;Laerm;45943;53.148;8.204;2024-02-21T04:40:01;54.64;43.07;69.63;;
49215;Laerm;45943;53.148;8.204;2024-02-21T04:42:27;50.69;43.42;65.42;;
49215;Laerm;45943;53.148;8.204;2024-02-21T04:44:53;46.81;43.99;64.93;;
49215;Laerm;45943;53.148;8.204;2024-02-21T04:47:19;57.09;44.28;71.91;;
49215;Laerm;45943;53.148;8.204;2024-02-21T04:49:46;51.77;43.25;67.81;;
49215;Laerm;45943;53.148;8.204;2024-02-21T04:52:12;45.29;42.76;53.16;;
49215;Laerm;45943;53.148;8.204;2024-02-21T04:54:38;49.30;42.76;63.22;;
49215;Laerm;45943;53.148;8.204;2024-02-21T04:57:04;45.88;42.69;54.10;;
49215;Laerm;45943;53.148;8.204;2024-02-21T04:59:30;48.17;43.25;63.49;;
49215;Laerm;45943;53.148;8.204;2024-02-21T05:01:56;45.67;43.31;61.98;;
49215;Laerm;45943;53.148;8.204;2024-02-21T05:04:22;49.36;43.19;63.44;;
49215;Laerm;45943;53.148;8.204;2024-02-21T05:06:48;53.12;43.69;68.76;;
49215;Laerm;45943;53.148;8.204;2024-02-21T05:09:15;53.61;43.84;67.41;;
49215;Laerm;45943;53.148;8.204;2024-02-21T05:11:41;45.36;42.76;65.71;;
49215;Laerm;45943;53.148;8.204;2024-02-21T05:14:07;49.76;43.19;62.80;;
49215;Laerm;45943;53.148;8.204;2024-02-21T05:16:33;57.84;43.42;76.47;;
49215;Laerm;45943;53.148;8.204;2024-02-21T05:18:59;54.22;43.42;69.20;;
49215;Laerm;45943;53.148;8.204;2024-02-21T05:21:25;54.41;44.04;69.94;;
49215;Laerm;45943;53.148;8.204;2024-02-21T05:23:52;50.97;43.31;67.12;;
49215;Laerm;45943;53.148;8.204;2024-02-21T05:26:25;53.13;44.18;66.11;;
49215;Laerm;45943;53.148;8.204;2024-02-21T05:28:51;56.93;44.37;72.35;;
49215;Laerm;45943;53.148;8.204;2024-02-21T05:31:18;51.41;43.42;68.83;;
49215;Laerm;45943;53.148;8.204;2024-02-21T05:33:45;51.91;44.04;63.99;;
49215;Laerm;45943;53.148;8.204;2024-02-21T05:36:12;51.53;43.58;66.42;;
49215;Laerm;45943;53.148;8.204;2024-02-21T05:38:38;54.81;43.94;69.42;;
49215;Laerm;45943;53.148;8.204;2024-02-21T05:41:04;53.34;43.84;70.23;;
49215;Laerm;45943;53.148;8.204;2024-02-21T05:43:30;57.51;44.37;71.02;;
49215;Laerm;45943;53.148;8.204;2024-02-21T05:45:57;51.76;43.99;70.41;;
49215;Laerm;45943;53.148;8.204;2024-02-21T05:48:23;52.88;44.18;65.25;;
49215;Laerm;45943;53.148;8.204;2024-02-21T05:50:49;57.23;43.99;71.70;;
49215;Laerm;45943;53.148;8.204;2024-02-21T05:53:15;55.65;44.46;66.67;;
49215;Laerm;45943;53.148;8.204;2024-02-21T05:55:41;55.23;44.59;68.83;;
49215;Laerm;45943;53.148;8.204;2024-02-21T05:58:07;55.51;43.69;66.72;;
49215;Laerm;45943;53.148;8.204;2024-02-21T06:00:37;54.36;45.22;65.36;;
49215;Laerm;45943;53.148;8.204;2024-02-21T06:03:03;54.05;44.54;68.21;;
49215;Laerm;45943;53.148;8.204;2024-02-21T06:05:29;54.09;43.94;66.60;;
49215;Laerm;45943;53.148;8.204;2024-02-21T06:07:56;56.92;44.23;67.93;;
49215;Laerm;45943;53.148;8.204;2024-02-21T06:10:23;54.86;44.23;67.51;;
49215;Laerm;45943;53.148;8.204;2024-02-21T06:12:49;55.29;44.04;66.94;;
49215;Laerm;45943;53.148;8.204;2024-02-21T06:15:15;53.54;43.84;69.18;;
49215;Laerm;45943;53.148;8.204;2024-02-21T06:17:41;55.20;44.14;69.10;;
49215;Laerm;45943;53.148;8.204;2024-02-21T06:20:08;57.16;45.25;75.00;;
49215;Laerm;45943;53.148;8.204;2024-02-21T06:22:34;56.04;44.99;68.84;;
49215;Laerm;45943;53.148;8.204;2024-02-21T06:25:05;56.59;45.61;72.92;;
49215;Laerm;45943;53.148;8.204;2024-02-21T06:27:37;55.34;44.54;67.11;;
49215;Laerm;45943;53.148;8.204;2024-02-21T06:30:04;53.59;45.03;63.87;;
49215;Laerm;45943;53.148;8.204;2024-02-21T06:36:13;58.62;45.07;73.57;;
49215;Laerm;45943;53.148;8.204;2024-02-21T06:38:54;57.83;44.46;70.35;;
49215;Laerm;45943;53.148;8.204;2024-02-21T06:41:28;55.59;45.29;70.93;;
49215;Laerm;45943;53.148;8.204;2024-02-21T06:44:02;56.62;44.83;70.11;;
49215;Laerm;45943;53.148;8.204;2024-02-21T06:46:29;56.00;45.14;68.80;;
49215;Laerm;45943;53.148;8.204;2024-02-21T06:49:01;58.61;44.28;71.57;;
49215;Laerm;45943;53.148;8.204;2024-02-21T06:51:48;57.82;44.09;68.78;;
49215;Laerm;45943;53.148;8.204;2024-02-21T06:54:41;55.62;44.04;66.19;;
49215;Laerm;45943;53.148;8.204;2024-02-21T06:58:06;56.84;43.53;71.20;;
49215;Laerm;45943;53.148;8.204;2024-02-21T07:00:44;57.69;43.36;71.04;;
49215;Laerm;45943;53.148;8.204;2024-02-21T07:03:16;54.79;43.58;68.32;;
49215;Laerm;45943;53.148;8.204;2024-02-21T07:05:42;58.74;45.77;72.87;;
49215;Laerm;45943;53.148;8.204;2024-02-21T07:08:08;55.91;44.54;65.66;;
49215;Laerm;45943;53.148;8.204;2024-02-21T07:13:52;56.56;43.84;71.06;;
49215;Laerm;45943;53.148;8.204;2024-02-21T07:20:01;54.41;43.84;67.62;;
49215;Laerm;45943;53.148;8.204;2024-02-21T07:22:50;58.20;44.23;70.45;;
49215;Laerm;45943;53.148;8.204;2024-02-21T07:25:16;57.55;43.74;72.30;;
49215;Laerm;45943;53.148;8.204;2024-02-21T07:27:55;57.91;43.69;71.45;;
49215;Laerm;45943;53.148;8.204;2024-02-21T07:30:30;57.98;44.50;73.22;;
49215;Laerm;45943;53.148;8.204;2024-02-21T07:32:56;60.16;44.67;76.25;;
49215;Laerm;45943;53.148;8.204;2024-02-21T07:39:38;56.13;42.95;71.16;;
49215;Laerm;45943;53.148;8.204;2024-02-21T07:42:16;56.07;43.79;69.00;;
49215;Laerm;45943;53.148;8.204;2024-02-21T07:44:42;57.61;44.18;66.48;;
49215;Laerm;45943;53.148;8.204;2024-02-21T07:53:33;56.86;44.23;69.03;;
49215;Laerm;45943;53.148;8.204;2024-02-21T07:55:59;57.42;43.93;68.48;;
49215;Laerm;45943;53.148;8.204;2024-02-21T07:58:26;57.07;44.37;67.96;;
49215;Laerm;45943;53.148;8.204;2024-02-21T08:00:54;57.71;45.11;70.90;;
49215;Laerm;45943;53.148;8.204;2024-02-21T08:03:35;56.86;44.87;68.51;;
49215;Laerm;45943;53.148;8.204;2024-02-21T08:06:06;57.04;43.69;66.92;;
49215;Laerm;45943;53.148;8.204;2024-02-21T08:08:37;55.69;44.09;67.07;;
49215;Laerm;45943;53.148;8.204;2024-02-21T08:11:03;56.69;43.69;70.14;;
49215;Laerm;45943;53.148;8.204;2024-02-21T08:13:29;50.25;43.42;62.03;;
49215;Laerm;45943;53.148;8.204;2024-02-21T08:15:55;54.59;44.32;64.76;;
49215;Laerm;45943;53.148;8.204;2024-02-21T08:18:26;54.87;43.69;65.81;;
49215;Laerm;45943;53.148;8.204;2024-02-21T08:20:57;59.28;44.18;72.26;;
49215;Laerm;45943;53.148;8.204;2024-02-21T08:23:24;55.62;43.19;67.88;;
49215;Laerm;45943;53.148;8.204;2024-02-21T08:25:50;56.37;44.32;69.08;;
49215;Laerm;45943;53.148;8.204;2024-02-21T08:28:16;60.75;43.99;77.06;;
49215;Laerm;45943;53.148;8.204;2024-02-21T08:30:56;57.17;44.04;73.07;;
49215;Laerm;45943;53.148;8.204;2024-02-21T08:33:25;55.07;43.69;65.55;;
49215;Laerm;45943;53.148;8.204;2024-02-21T08:35:51;55.29;43.25;66.55;;
49215;Laerm;45943;53.148;8.204;2024-02-21T08:38:17;53.03;44.14;66.14;;
49215;Laerm;45943;53.148;8.204;2024-02-21T08:40:46;54.47;44.14;66.10;;
49215;Laerm;45943;53.148;8.204;2024-02-21T08:43:12;56.30;43.84;68.24;;
49215;Laerm;45943;53.148;8.204;2024-02-21T08:46:16;55.97;43.89;69.78;;
49215;Laerm;45943;53.148;8.204;2024-02-21T08:49:11;60.36;45.43;74.22;;
49215;Laerm;45943;53.148;8.204;2024-02-21T08:51:37;58.17;43.94;71.48;;
49215;Laerm;45943;53.148;8.204;2024-02-21T08:54:21;57.19;43.64;70.42;;
49215;Laerm;45943;53.148;8.204;2024-02-21T08:56:56;54.64;43.60;66.49;;
49215;Laerm;45943;53.148;8.204;2024-02-21T08:59:25;55.15;44.32;66.45;;
49215;Laerm;45943;53.148;8.204;2024-02-21T09:01:52;51.13;44.37;63.30;;
49215;Laerm;45943;53.148;8.204;2024-02-21T09:04:19;58.24;46.08;71.41;;
49215;Laerm;45943;53.148;8.204;2024-02-21T09:06:45;59.07;44.46;73.42;;
49215;Laerm;45943;53.148;8.204;2024-02-21T09:09:15;56.27;44.71;70.40;;
49215;Laerm;45943;53.148;8.204;2024-02-21T09:11:41;55.56;43.79;69.32;;
49215;Laerm;45943;53.148;8.204;2024-02-21T09:17:44;57.86;43.58;69.30;;
49215;Laerm;45943;53.148;8.204;2024-02-21T09:20:17;57.44;44.54;69.08;;
49215;Laerm;45943;53.148;8.204;2024-02-21T09:22:47;55.89;44.09;67.87;;
49215;Laerm;45943;53.148;8.204;2024-02-21T09:25:23;53.95;43.79;66.54;;
49215;Laerm;45943;53.148;8.204;2024-02-21T09:27:56;56.10;43.84;66.09;;
49215;Laerm;45943;53.148;8.204;2024-02-21T09:30:24;50.73;43.42;63.39;;
49215;Laerm;45943;53.148;8.204;2024-02-21T09:32:50;55.25;44.04;67.43;;
49215;Laerm;45943;53.148;8.204;2024-02-21T09:35:16;54.64;43.13;68.07;;
49215;Laerm;45943;53.148;8.204;2024-02-21T09:37:42;57.00;43.25;67.68;;
49215;Laerm;45943;53.148;8.204;2024-02-21T09:40:09;54.90;43.07;67.67;;
49215;Laerm;45943;53.148;8.204;2024-02-21T09:42:39;53.97;43.01;68.59;;
49215;Laerm;45943;53.148;8.204;2024-02-21T09:51:15;58.39;44.23;73.67;;
49215;Laerm;45943;53.148;8.204;2024-02-21T09:53:56;56.79;43.48;68.12;;
49215;Laerm;45943;53.148;8.204;2024-02-21T09:56:25;55.13;43.07;72.90;;
49215;Laerm;45943;53.148;8.204;2024-02-21T09:58:51;54.44;43.13;65.39;;
49215;Laerm;45943;53.148;8.204;2024-02-21T10:01:18;55.08;43.58;66.61;;
49215;Laerm;45943;53.148;8.204;2024-02-21T10:03:44;56.96;44.04;69.23;;
49215;Laerm;45943;53.148;8.204;2024-02-21T10:06:15;54.90;44.28;72.54;;
49215;Laerm;45943;53.148;8.204;2024-02-21T10:09:03;55.57;44.46;67.76;;
49215;Laerm;45943;53.148;8.204;2024-02-21T10:11:35;51.79;43.69;64.96;;
49215;Laerm;45943;53.148;8.204;2024-02-21T10:14:07;57.17;44.14;76.22;;
49215;Laerm;45943;53.148;8.204;2024-02-21T10:16:34;53.87;43.58;69.24;;
49215;Laerm;45943;53.148;8.204;2024-02-21T10:19:00;55.35;43.74;66.88;;
49215;Laerm;45943;53.148;8.204;2024-02-21T10:21:31;55.34;43.31;66.96;;
49215;Laerm;45943;53.148;8.204;2024-02-21T10:24:04;56.85;43.99;71.15;;
49215;Laerm;45943;53.148;8.204;2024-02-21T10:34:33;53.16;43.79;69.00;;
49215;Laerm;45943;53.148;8.204;2024-02-21T10:37:15;54.91;43.79;65.06;;
49215;Laerm;45943;53.148;8.204;2024-02-21T10:39:49;57.28;45.64;69.63;;
49215;Laerm;45943;53.148;8.204;2024-02-21T10:42:29;55.24;43.99;66.62;;
49215;Laerm;45943;53.148;8.204;2024-02-21T10:45:01;56.92;43.31;71.10;;
49215;Laerm;45943;53.148;8.204;2024-02-21T10:47:31;52.21;43.13;63.55;;
49215;Laerm;45943;53.148;8.204;2024-02-21T10:50:03;55.86;44.50;67.51;;
49215;Laerm;45943;53.148;8.204;2024-02-21T10:52:56;54.80;44.09;66.53;;
49215;Laerm;45943;53.148;8.204;2024-02-21T10:55:38;55.12;43.94;68.40;;
49215;Laerm;45943;53.148;8.204;2024-02-21T10:58:05;55.88;44.23;66.46;;
49215;Laerm;45943;53.148;8.204;2024-02-21T11:00:31;55.35;44.75;68.96;;
49215;Laerm;45943;53.148;8.204;2024-02-21T11:02:59;54.36;44.50;67.10;;
49215;Laerm;45943;53.148;8.204;2024-02-21T11:05:26;56.27;44.37;68.64;;
49215;Laerm;45943;53.148;8.204;2024-02-21T11:07:54;56.00;44.14;70.42;;
49215;Laerm;45943;53.148;8.204;2024-02-21T11:10:22;54.64;44.71;64.73;;
49215;Laerm;45943;53.148;8.204;2024-02-21T11:12:49;53.92;43.84;66.76;;
49215;Laerm;45943;53.148;8.204;2024-02-21T11:15:18;55.38;43.58;67.90;;
49215;Laerm;45943;53.148;8.204;2024-02-21T11:17:53;55.24;44.14;64.39;;
49215;Laerm;45943;53.148;8.204;2024-02-21T11:20:20;54.55;43.84;70.11;;
49215;Laerm;45943;53.148;8.204;2024-02-21T11:22:46;53.38;44.18;70.51;;
49215;Laerm;45943;53.148;8.204;2024-02-21T11:25:21;56.03;45.03;70.89;;
49215;Laerm;45943;53.148;8.204;2024-02-21T11:27:47;54.38;44.95;70.62;;
49215;Laerm;45943;53.148;8.204;2024-02-21T11:30:13;54.77;44.04;71.87;;
49215;Laerm;45943;53.148;8.204;2024-02-21T11:32:40;57.86;44.67;83.79;;
49215;Laerm;45943;53.148;8.204;2024-02-21T11:35:06;54.34;43.94;75.49;;
49215;Laerm;45943;53.148;8.204;2024-02-21T11:37:33;59.25;44.71;78.64;;
49215;Laerm;45943;53.148;8.204;2024-02-21T11:40:00;56.23;45.36;72.10;;
49215;Laerm;45943;53.148;8.204;2024-02-21T11:42:27;54.53;44.28;76.84;;
49215;Laerm;45943;53.148;8.204;2024-02-21T11:44:55;54.91;43.99;65.85;;
49215;Laerm;45943;53.148;8.204;2024-02-21T11:47:24;54.27;44.53;65.73;;
49215;Laerm;45943;53.148;8.204;2024-02-21T11:49:50;57.20;43.84;66.66;;
49215;Laerm;45943;53.148;8.204;2024-02-21T11:52:23;54.94;43.94;69.83;;
49215;Laerm;45943;53.148;8.204;2024-02-21T11:54:53;55.91;44.63;68.53;;
49215;Laerm;45943;53.148;8.204;2024-02-21T11:57:20;56.28;44.59;68.63;;
49215;Laerm;45943;53.148;8.204;2024-02-21T11:59:46;54.13;44.04;65.51;;
49215;Laerm;45943;53.148;8.204;2024-02-21T12:02:14;57.23;43.74;72.49;;
49215;Laerm;45943;53.148;8.204;2024-02-21T12:04:40;53.99;44.71;65.25;;
49215;Laerm;45943;53.148;8.204;2024-02-21T12:07:07;51.76;43.94;64.99;;
49215;Laerm;45943;53.148;8.204;2024-02-21T12:09:34;54.80;44.37;67.07;;
49215;Laerm;45943;53.148;8.204;2024-02-21T12:12:04;54.85;43.07;75.92;;
49215;Laerm;45943;53.148;8.204;2024-02-21T12:14:34;55.34;44.46;66.67;;
49215;Laerm;45943;53.148;8.204;2024-02-21T12:17:01;53.86;43.84;64.79;;
49215;Laerm;45943;53.148;8.204;2024-02-21T12:19:30;55.85;44.23;69.19;;
49215;Laerm;45943;53.148;8.204;2024-02-21T12:21:59;54.54;43.69;69.81;;
49215;Laerm;45943;53.148;8.204;2024-02-21T12:24:26;57.09;43.84;70.65;;
49215;Laerm;45943;53.148;8.204;2024-02-21T12:26:53;54.71;43.36;68.54;;
49215;Laerm;45943;53.148;8.204;2024-02-21T12:29:20;53.62;43.36;67.54;;
49215;Laerm;45943;53.148;8.204;2024-02-21T12:31:46;54.96;44.71;67.38;;
49215;Laerm;45943;53.148;8.204;2024-02-21T12:34:13;54.43;43.89;65.15;;
49215;Laerm;45943;53.148;8.204;2024-02-21T12:36:44;62.00;44.91;82.24;;
49215;Laerm;45943;53.148;8.204;2024-02-21T12:39:11;56.17;44.87;72.62;;
49215;Laerm;45943;53.148;8.204;2024-02-21T12:41:38;54.44;43.94;69.35;;
49215;Laerm;45943;53.148;8.204;2024-02-21T12:44:05;56.21;44.18;69.15;;
49215;Laerm;45943;53.148;8.204;2024-02-21T12:46:34;65.82;51.28;84.44;;
49215;Laerm;45943;53.148;8.204;2024-02-21T12:49:04;57.06;45.22;69.55;;
49215;Laerm;45943;53.148;8.204;2024-02-21T12:51:34;55.85;43.94;70.41;;
49215;Laerm;45943;53.148;8.204;2024-02-21T12:54:00;52.41;44.14;62.99;;
49215;Laerm;45943;53.148;8.204;2024-02-21T12:56:26;55.87;44.41;66.12;;
49215;Laerm;45943;53.148;8.204;2024-02-21T12:58:58;54.19;43.31;67.51;;
49215;Laerm;45943;53.148;8.204;2024-02-21T13:01:24;53.06;44.18;65.20;;
49215;Laerm;45943;53.148;8.204;2024-02-21T13:03:51;54.43;43.69;68.42;;
49215;Laerm;45943;53.148;8.204;2024-02-21T13:06:17;54.36;44.04;65.98;;
49215;Laerm;45943;53.148;8.204;2024-02-21T13:08:45;54.63;44.14;67.60;;
49215;Laerm;45943;53.148;8.204;2024-02-21T13:11:12;54.16;44.67;67.20;;
49215;Laerm;45943;53.148;8.204;2024-02-21T13:13:39;56.00;45.03;67.28;;
49215;Laerm;45943;53.148;8.204;2024-02-21T13:16:05;57.50;45.80;70.36;;
49215;Laerm;45943;53.148;8.204;2024-02-21T13:18:31;55.85;45.64;71.30;;
49215;Laerm;45943;53.148;8.204;2024-02-21T13:20:58;56.07;43.99;69.07;;
49215;Laerm;45943;53.148;8.204;2024-02-21T13:23:24;55.64;43.64;69.67;;
49215;Laerm;45943;53.148;8.204;2024-02-21T13:25:50;54.16;42.89;67.63;;
49215;Laerm;45943;53.148;8.204;2024-02-21T13:28:16;56.21;43.36;67.57;;
49215;Laerm;45943;53.148;8.204;2024-02-21T13:30:43;56.01;43.48;69.27;;
49215;Laerm;45943;53.148;8.204;2024-02-21T13:33:09;57.57;43.74;68.58;;
49215;Laerm;45943;53.148;8.204;2024-02-21T13:35:35;55.58;43.64;70.77;;
49215;Laerm;45943;53.148;8.204;2024-02-21T13:38:03;62.92;42.89;89.73;;
49215;Laerm;45943;53.148;8.204;2024-02-21T13:40:29;55.48;42.42;70.19;;
49215;Laerm;45943;53.148;8.204;2024-02-21T13:42:55;54.19;43.01;72.99;;
49215;Laerm;45943;53.148;8.204;2024-02-21T13:45:21;56.77;43.99;66.88;;
49215;Laerm;45943;53.148;8.204;2024-02-21T13:47:47;54.89;43.45;68.38;;
49215;Laerm;45943;53.148;8.204;2024-02-21T13:50:14;53.91;43.53;66.20;;
49215;Laerm;45943;53.148;8.204;2024-02-21T13:52:40;57.21;44.46;70.08;;
49215;Laerm;45943;53.148;8.204;2024-02-21T13:55:07;56.79;44.09;69.91;;
49215;Laerm;45943;53.148;8.204;2024-02-21T13:57:36;57.13;43.42;70.75;;
49215;Laerm;45943;53.148;8.204;2024-02-21T14:00:05;56.43;44.50;68.46;;
49215;Laerm;45943;53.148;8.204;2024-02-21T14:02:32;56.61;43.48;71.40;;
49215;Laerm;45943;53.148;8.204;2024-02-21T14:04:58;53.18;43.48;66.08;;
49215;Laerm;45943;53.148;8.204;2024-02-21T14:07:24;58.70;44.04;72.38;;
49215;Laerm;45943;53.148;8.204;2024-02-21T14:09:50;55.64;43.79;75.15;;
49215;Laerm;45943;53.148;8.204;2024-02-21T14:12:16;61.66;43.79;73.47;;
49215;Laerm;45943;53.148;8.204;2024-02-21T14:14:43;59.20;44.75;72.69;;
49215;Laerm;45943;53.148;8.204;2024-02-21T14:17:10;69.58;44.23;91.93;;
49215;Laerm;45943;53.148;8.204;2024-02-21T14:19:36;58.24;44.99;71.06;;
49215;Laerm;45943;53.148;8.204;2024-02-21T14:22:02;58.60;44.14;70.49;;
49215;Laerm;45943;53.148;8.204;2024-02-21T14:24:28;55.40;43.02;71.34;;
49215;Laerm;45943;53.148;8.204;2024-02-21T14:26:54;57.43;44.37;74.45;;
49215;Laerm;45943;53.148;8.204;2024-02-21T14:29:22;56.78;43.64;73.28;;
49215;Laerm;45943;53.148;8.204;2024-02-21T14:31:48;57.01;43.69;70.66;;